slotsvendor.eu alexa rank chart, slotsvendor.eu alexa rank daily changes

slotsvendor.eu alexa rank chart, slotsvendor.eu alexa rank daily changes

slotsvendor.eu
Actual rank:
868 217

RANK HISTORY

Date Rank Diff
2017/02/26 868 217 +29 419
2017/02/25 838 798 +31 456
2017/02/24 807 342 +7 907
2017/02/23 799 435 +41 274
2017/02/22 758 161 +5 980
2017/02/21 752 181 +30 702
2017/02/20 721 479 +23 285
2017/02/19 698 194 -27 103
2017/02/18 725 297 +24 805
2017/02/17 700 492 -12 257
2017/02/16 712 749 +1 967
2017/02/15 710 782 -228
2017/02/14 711 010 -31 551
2017/02/13 742 561 -4 563
2017/02/12 747 124 +27 101
2017/02/11 720 023 +24 316
2017/02/10 695 707 -22 190
2017/02/09 717 897 +560
2017/02/08 717 337 -26 374
2017/02/07 743 711 +25 716
2017/02/06 717 995 +21 435
2017/02/05 696 560 +28 795
2017/02/04 667 765 -34 881
2017/02/03 702 646 -14 471
2017/02/02 717 117 +13 831
2017/02/01 703 286 -37 207
2017/01/31 740 493 +23 742
2017/01/30 716 751 -35 501
2017/01/29 752 252 -32 606
2017/01/28 784 858 +3 348
2017/01/27 781 510 -43 215
2017/01/26 824 725 -24 184
2017/01/25 848 909 -32 604
2017/01/24 881 513 -49 100
2017/01/23 930 613 +58 016
2017/01/22 872 597 -44 850
2017/01/21 917 447 -54 640
2017/01/20 972 087

WIDGET FOR YOUR SITE

DOMAINS WITH THE NEAREST RANK

Domain Rank
heroturko.download 868 212
babyland.me 868 213
instapopipanel.com 868 214
tastyigniter.com 868 215
dailyspeedy.com 868 216
slotsvendor.eu 868 217
himalayausa.com 868 218
bill-info.com 868 219
topbusiness-hr.com 868 220
itnox.de 868 221
alogiaongay.com 868 222

DOMAINS WITH THE NEAREST RANK BY TLD .eu

Domain Rank
betterinternetforkids.eu 866 625
baseballmania.eu 867 235
ekivita.eu 867 399
verbuga.eu 867 688
hexagonmc.eu 868 035
slotsvendor.eu 868 217
gildafc.eu 868 428
dutchartinstitute.eu 868 585
dlhub.eu 868 691
hsm.eu 869 061
realstaff.eu 869 121